Suederoog — ZDHC8 — position and weather

sailwx.info

Track history (hours):
 
Tides and Currents Weather Stations Pressure Air Temp Water Temp Dewpoint Dewpoint Depression Visibility Wind Speed Wind Dir Waves Ship Positions

Suederoog

Last reported at 2014-Aug-20 06:05 UTC. Time now 2014-Aug-20 12:44 UTC.
Position N 56°02' E 016°43'.

Length 161 m; draft 9.4 m.

Type: Ship (hazmat cat A). MMSI: 236300000.

Date/timePositionNaut miles runAvg speedWind from/ knotsBaromVisibWave heightAir tempDewpointWater temp
2014-Aug-20 06:05N 56°02' E 016°43'611.6
2014-Aug-20 05:33N 55°59' E 016°33'1211.9
2014-Aug-20 04:33N 55°53' E 016°14'1211.9
2014-Aug-20 03:32N 55°47' E 015°55'1512.0
2014-Aug-20 02:18N 55°40' E 015°32'2611.8
2014-Aug-20 00:05N 55°28' E 014°51'1911.3
2014-Aug-19 22:22N 55°15' E 014°26'1011.7
2014-Aug-19 21:31N 55°07' E 014°16'5011.5
2014-Aug-19 17:10N 54°47' E 012°56'711.8
2014-Aug-19 16:32N 54°45' E 012°43'1311.9
2014-Aug-19 15:26N 54°39' E 012°24'1111.0
2014-Aug-19 14:29N 54°30' E 012°14'910.2
2014-Aug-19 13:33N 54°25' E 012°00'84 8.4
2014-Aug-19 03:31N 54°16' E 009°37'12 6.2
2014-Aug-19 01:33N 54°08' E 009°20'7 6.8
2014-Aug-19 00:33N 54°02' E 009°18'6 5.9
2014-Aug-18 23:33N 53°56' E 009°13'0 0.3
2014-Aug-18 22:33N 53°56' E 009°13'4 3.6
2014-Aug-18 21:33N 53°54' E 009°09'2 2.3
2014-Aug-18 20:33N 53°53' E 009°12'0 0.1
2014-Aug-18 19:34N 53°53' E 009°12'7 7.1
2014-Aug-18 18:33N 53°49' E 009°22'1312.9
2014-Aug-18 17:33N 53°37' E 009°32'1110.6
2014-Aug-18 16:34N 53°33' E 009°49'4 4.0
2014-Aug-18 15:32N 53°32' E 009°55'0 0.0
2014-Aug-18 14:33N 53°32' E 009°55'0 0.0
2014-Aug-18 13:33N 53°32' E 009°55'0 0.0
2014-Aug-18 12:32N 53°32' E 009°55'0 0.0
2014-Aug-18 11:33N 53°32' E 009°55'0 0.0
2014-Aug-18 10:32N 53°32' E 009°55'0 0.0
2014-Aug-18 09:33N 53°32' E 009°55'0 0.0
2014-Aug-18 08:30N 53°32' E 009°55'0 0.0
2014-Aug-18 07:30N 53°32' E 009°55'0 0.0
2014-Aug-18 06:31N 53°32' E 009°55'0 0.1
2014-Aug-18 05:33N 53°32' E 009°55'1 1.3
2014-Aug-18 04:33N 53°32' E 009°57'0 0.0
2014-Aug-18 03:32N 53°32' E 009°57'0 0.0
2014-Aug-18 02:32N 53°32' E 009°57'0 0.0
2014-Aug-18 01:32N 53°32' E 009°57'0 0.0
2014-Aug-18 00:29N 53°32' E 009°57'0 0.0
2014-Aug-17 18:33N 53°32' E 009°57'0 0.0
2014-Aug-17 17:34N 53°32' E 009°57'1 0.7
2014-Aug-17 16:33N 53°32' E 009°56'9 8.9
2014-Aug-17 15:34N 53°34' E 009°41'1615.9
2014-Aug-17 14:34N 53°46' E 009°24'5 5.2
2014-Aug-17 13:31N 53°51' E 009°19'0 0.1
2014-Aug-17 12:31N 53°51' E 009°19'0 0.1
2014-Aug-17 11:34N 53°51' E 009°19'7 6.3
2014-Aug-17 10:28N 53°54' E 009°09'3 3.1
2014-Aug-17 09:33N 53°56' E 009°12'7 6.7
2014-Aug-17 08:33N 54°01' E 009°18'7 6.6
2014-Aug-17 07:33N 54°08' E 009°20'2 1.9
2014-Aug-17 06:33N 54°09' E 009°22'6 6.5
2014-Aug-17 05:33N 54°12' E 009°33'2 2.3
2014-Aug-17 04:33N 54°13' E 009°36'70 7.0
2014-Aug-16 18:34N 54°30' E 011°33'1110.6
2014-Aug-16 17:30N 54°26' E 011°52'910.0
2014-Aug-16 16:34N 54°26' E 012°08'10 9.5
2014-Aug-16 15:33N 54°35' E 012°15'1010.1
2014-Aug-16 14:34N 54°41' E 012°29'1010.2
2014-Aug-16 13:34N 54°47' E 012°43'1110.2
2014-Aug-16 12:28N 54°51' E 013°01'1110.2
2014-Aug-16 11:22N 54°55' E 013°20'810.3
2014-Aug-16 10:33N 54°58' E 013°33'1010.4
2014-Aug-16 09:33N 55°01' E 013°50'10 9.9
2014-Aug-16 08:33N 55°06' E 014°06'1414.1
2014-Aug-16 07:33N 55°17' E 014°21'1413.9
2014-Aug-16 06:31N 55°28' E 014°38'1010.5
2014-Aug-16 05:32N 55°33' E 014°54'1210.5
2014-Aug-16 04:22N 55°39' E 015°13'3410.8
2014-Aug-16 01:14N 55°56' E 016°05'811.5
2014-Aug-16 00:33N 55°60' E 016°17'1311.5
2014-Aug-15 23:26N 56°06' E 016°37'30812.4
2014-Aug-14 22:33N 59°40' E 023°36'1716.8
2014-Aug-14 21:33N 59°45' E 024°07'6816.6
2014-Aug-14 17:28N 60°04' E 026°17'1314.3
2014-Aug-14 16:34N 60°16' E 026°28'1514.8
2014-Aug-14 15:33N 60°24' E 026°53'2 1.6
2014-Aug-14 14:31N 60°25' E 026°55'0 0.0
2014-Aug-14 13:32N 60°25' E 026°55'0 0.0
2014-Aug-14 12:31N 60°25' E 026°55'0 0.0
2014-Aug-14 11:34N 60°25' E 026°55'0 0.0
2014-Aug-14 10:33N 60°25' E 026°55'0 0.0
2014-Aug-14 09:33N 60°25' E 026°55'0 0.0
2014-Aug-14 08:33N 60°25' E 026°55'0 0.0
2014-Aug-14 07:33N 60°25' E 026°55'0 0.0
2014-Aug-14 06:33N 60°25' E 026°55'0 0.0
2014-Aug-14 05:33N 60°25' E 026°55'0 0.0
2014-Aug-14 04:33N 60°25' E 026°55'0 0.0
2014-Aug-14 03:33N 60°25' E 026°55'0 0.0
2014-Aug-14 02:33N 60°25' E 026°55'0 0.0
2014-Aug-14 01:33N 60°25' E 026°55'0 0.0
2014-Aug-14 00:33N 60°25' E 026°55'0 0.0
2014-Aug-13 23:33N 60°25' E 026°55'0 0.0
2014-Aug-13 22:33N 60°25' E 026°55'0 0.4
2014-Aug-13 21:33N 60°25' E 026°55'1212.2
2014-Aug-13 20:34N 60°19' E 026°34'1110.7
2014-Aug-13 19:33N 60°09' E 026°24'1110.7
2014-Aug-13 18:33N 60°03' E 026°42'106 6.6
2014-Aug-13 02:33N 59°54' E 030°14'0 0.0
2014-Aug-13 01:30N 59°54' E 030°14'0 0.0
2014-Aug-13 00:30N 59°54' E 030°14'0 0.0
2014-Aug-12 23:33N 59°54' E 030°14'0 0.0
2014-Aug-12 22:32N 59°54' E 030°14'0 0.0
2014-Aug-12 21:29N 59°54' E 030°14'0 0.0
2014-Aug-12 20:32N 59°54' E 030°14'1 1.1
2014-Aug-12 19:26N 59°53' E 030°12'0 0.0
2014-Aug-12 15:21N 59°53' E 030°12'0 0.0
2014-Aug-12 08:16N 59°53' E 030°12'0 0.0
2014-Aug-12 07:31N 59°53' E 030°12'0 0.0
2014-Aug-12 06:16N 59°53' E 030°12'0 0.0
2014-Aug-12 04:22N 59°53' E 030°12'0 0.0
2014-Aug-12 03:25N 59°53' E 030°12'0 0.3
2014-Aug-12 02:24N 59°53' E 030°12'6 6.6
2014-Aug-12 01:29N 59°55' E 030°00'71 9.5
2014-Aug-11 18:05N 60°09' E 027°41'611.3
2014-Aug-11 17:33N 60°06' E 027°31'1111.3
2014-Aug-11 16:33N 60°00' E 027°12'1110.7
2014-Aug-11 15:33N 59°59' E 026°51'1111.3
2014-Aug-11 14:33N 59°58' E 026°28'1111.4
2014-Aug-11 13:33N 59°55' E 026°06'1111.2
2014-Aug-11 12:32N 59°52' E 025°44'1211.0
2014-Aug-11 11:28N 59°50' E 025°21'4113.8
2014-Aug-11 08:27N 59°39' E 024°02'1011.2
2014-Aug-11 07:31N 59°36' E 023°42'1111.6
2014-Aug-11 06:33N 59°33' E 023°21'21111.5
2014-Aug-10 12:08N 56°59' E 018°45'1219.2
2014-Aug-10 11:32N 56°50' E 018°32'6311.9
2014-Aug-10 06:17N 56°11' E 017°04'  
Track history (hours):
 
Tides and Currents Weather Stations Pressure Air Temp Water Temp Dewpoint Dewpoint Depression Visibility Wind Speed Wind Dir Waves Ship Positions

Suederoog

Last reported at 2014-Aug-20 06:05 UTC. Time now 2014-Aug-20 12:44 UTC.
Position N 56°02' E 016°43'.

Length 161 m; draft 9.4 m.

Type: Ship (hazmat cat A). MMSI: 236300000.

Date/timePositionNaut miles runAvg speedWind from/ knotsBaromVisibWave heightAir tempDewpointWater temp
2014-Aug-20 06:05N 56°02' E 016°43'611.6
2014-Aug-20 05:33N 55°59' E 016°33'1211.9
2014-Aug-20 04:33N 55°53' E 016°14'1211.9
2014-Aug-20 03:32N 55°47' E 015°55'1512.0
2014-Aug-20 02:18N 55°40' E 015°32'2611.8
2014-Aug-20 00:05N 55°28' E 014°51'1911.3
2014-Aug-19 22:22N 55°15' E 014°26'1011.7
2014-Aug-19 21:31N 55°07' E 014°16'5011.5
2014-Aug-19 17:10N 54°47' E 012°56'711.8
2014-Aug-19 16:32N 54°45' E 012°43'1311.9
2014-Aug-19 15:26N 54°39' E 012°24'1111.0
2014-Aug-19 14:29N 54°30' E 012°14'910.2
2014-Aug-19 13:33N 54°25' E 012°00'84 8.4
2014-Aug-19 03:31N 54°16' E 009°37'12 6.2
2014-Aug-19 01:33N 54°08' E 009°20'7 6.8
2014-Aug-19 00:33N 54°02' E 009°18'6 5.9
2014-Aug-18 23:33N 53°56' E 009°13'0 0.3
2014-Aug-18 22:33N 53°56' E 009°13'4 3.6
2014-Aug-18 21:33N 53°54' E 009°09'2 2.3
2014-Aug-18 20:33N 53°53' E 009°12'0 0.1
2014-Aug-18 19:34N 53°53' E 009°12'7 7.1
2014-Aug-18 18:33N 53°49' E 009°22'1312.9
2014-Aug-18 17:33N 53°37' E 009°32'1110.6
2014-Aug-18 16:34N 53°33' E 009°49'4 4.0
2014-Aug-18 15:32N 53°32' E 009°55'0 0.0
2014-Aug-18 14:33N 53°32' E 009°55'0 0.0
2014-Aug-18 13:33N 53°32' E 009°55'0 0.0
2014-Aug-18 12:32N 53°32' E 009°55'0 0.0
2014-Aug-18 11:33N 53°32' E 009°55'0 0.0
2014-Aug-18 10:32N 53°32' E 009°55'0 0.0
2014-Aug-18 09:33N 53°32' E 009°55'0 0.0
2014-Aug-18 08:30N 53°32' E 009°55'0 0.0
2014-Aug-18 07:30N 53°32' E 009°55'0 0.0
2014-Aug-18 06:31N 53°32' E 009°55'0 0.1
2014-Aug-18 05:33N 53°32' E 009°55'1 1.3
2014-Aug-18 04:33N 53°32' E 009°57'0 0.0
2014-Aug-18 03:32N 53°32' E 009°57'0 0.0
2014-Aug-18 02:32N 53°32' E 009°57'0 0.0
2014-Aug-18 01:32N 53°32' E 009°57'0 0.0
2014-Aug-18 00:29N 53°32' E 009°57'0 0.0
2014-Aug-17 18:33N 53°32' E 009°57'0 0.0
2014-Aug-17 17:34N 53°32' E 009°57'1 0.7
2014-Aug-17 16:33N 53°32' E 009°56'9 8.9
2014-Aug-17 15:34N 53°34' E 009°41'1615.9
2014-Aug-17 14:34N 53°46' E 009°24'5 5.2
2014-Aug-17 13:31N 53°51' E 009°19'0 0.1
2014-Aug-17 12:31N 53°51' E 009°19'0 0.1
2014-Aug-17 11:34N 53°51' E 009°19'7 6.3
2014-Aug-17 10:28N 53°54' E 009°09'3 3.1
2014-Aug-17 09:33N 53°56' E 009°12'7 6.7
2014-Aug-17 08:33N 54°01' E 009°18'7 6.6
2014-Aug-17 07:33N 54°08' E 009°20'2 1.9
2014-Aug-17 06:33N 54°09' E 009°22'6 6.5
2014-Aug-17 05:33N 54°12' E 009°33'2 2.3
2014-Aug-17 04:33N 54°13' E 009°36'70 7.0
2014-Aug-16 18:34N 54°30' E 011°33'1110.6
2014-Aug-16 17:30N 54°26' E 011°52'910.0
2014-Aug-16 16:34N 54°26' E 012°08'10 9.5
2014-Aug-16 15:33N 54°35' E 012°15'1010.1
2014-Aug-16 14:34N 54°41' E 012°29'1010.2
2014-Aug-16 13:34N 54°47' E 012°43'1110.2
2014-Aug-16 12:28N 54°51' E 013°01'1110.2
2014-Aug-16 11:22N 54°55' E 013°20'810.3
2014-Aug-16 10:33N 54°58' E 013°33'1010.4
2014-Aug-16 09:33N 55°01' E 013°50'10 9.9
2014-Aug-16 08:33N 55°06' E 014°06'1414.1
2014-Aug-16 07:33N 55°17' E 014°21'1413.9
2014-Aug-16 06:31N 55°28' E 014°38'1010.5
2014-Aug-16 05:32N 55°33' E 014°54'1210.5
2014-Aug-16 04:22N 55°39' E 015°13'3410.8
2014-Aug-16 01:14N 55°56' E 016°05'811.5
2014-Aug-16 00:33N 55°60' E 016°17'1311.5
2014-Aug-15 23:26N 56°06' E 016°37'30812.4
2014-Aug-14 22:33N 59°40' E 023°36'1716.8
2014-Aug-14 21:33N 59°45' E 024°07'6816.6
2014-Aug-14 17:28N 60°04' E 026°17'1314.3
2014-Aug-14 16:34N 60°16' E 026°28'1514.8
2014-Aug-14 15:33N 60°24' E 026°53'2 1.6
2014-Aug-14 14:31N 60°25' E 026°55'0 0.0
2014-Aug-14 13:32N 60°25' E 026°55'0 0.0
2014-Aug-14 12:31N 60°25' E 026°55'0 0.0
2014-Aug-14 11:34N 60°25' E 026°55'0 0.0
2014-Aug-14 10:33N 60°25' E 026°55'0 0.0
2014-Aug-14 09:33N 60°25' E 026°55'0 0.0
2014-Aug-14 08:33N 60°25' E 026°55'0 0.0
2014-Aug-14 07:33N 60°25' E 026°55'0 0.0
2014-Aug-14 06:33N 60°25' E 026°55'0 0.0
2014-Aug-14 05:33N 60°25' E 026°55'0 0.0
2014-Aug-14 04:33N 60°25' E 026°55'0 0.0
2014-Aug-14 03:33N 60°25' E 026°55'0 0.0
2014-Aug-14 02:33N 60°25' E 026°55'0 0.0
2014-Aug-14 01:33N 60°25' E 026°55'0 0.0
2014-Aug-14 00:33N 60°25' E 026°55'0 0.0
2014-Aug-13 23:33N 60°25' E 026°55'0 0.0
2014-Aug-13 22:33N 60°25' E 026°55'0 0.4
2014-Aug-13 21:33N 60°25' E 026°55'1212.2
2014-Aug-13 20:34N 60°19' E 026°34'1110.7
2014-Aug-13 19:33N 60°09' E 026°24'1110.7
2014-Aug-13 18:33N 60°03' E 026°42'106 6.6
2014-Aug-13 02:33N 59°54' E 030°14'0 0.0
2014-Aug-13 01:30N 59°54' E 030°14'0 0.0
2014-Aug-13 00:30N 59°54' E 030°14'0 0.0
2014-Aug-12 23:33N 59°54' E 030°14'0 0.0
2014-Aug-12 22:32N 59°54' E 030°14'0 0.0
2014-Aug-12 21:29N 59°54' E 030°14'0 0.0
2014-Aug-12 20:32N 59°54' E 030°14'1 1.1
2014-Aug-12 19:26N 59°53' E 030°12'0 0.0
2014-Aug-12 15:21N 59°53' E 030°12'0 0.0
2014-Aug-12 08:16N 59°53' E 030°12'0 0.0
2014-Aug-12 07:31N 59°53' E 030°12'0 0.0
2014-Aug-12 06:16N 59°53' E 030°12'0 0.0
2014-Aug-12 04:22N 59°53' E 030°12'0 0.0
2014-Aug-12 03:25N 59°53' E 030°12'0 0.3
2014-Aug-12 02:24N 59°53' E 030°12'6 6.6
2014-Aug-12 01:29N 59°55' E 030°00'71 9.5
2014-Aug-11 18:05N 60°09' E 027°41'611.3
2014-Aug-11 17:33N 60°06' E 027°31'1111.3
2014-Aug-11 16:33N 60°00' E 027°12'1110.7
2014-Aug-11 15:33N 59°59' E 026°51'1111.3
2014-Aug-11 14:33N 59°58' E 026°28'1111.4
2014-Aug-11 13:33N 59°55' E 026°06'1111.2
2014-Aug-11 12:32N 59°52' E 025°44'1211.0
2014-Aug-11 11:28N 59°50' E 025°21'4113.8
2014-Aug-11 08:27N 59°39' E 024°02'1011.2
2014-Aug-11 07:31N 59°36' E 023°42'1111.6
2014-Aug-11 06:33N 59°33' E 023°21'21111.5
2014-Aug-10 12:08N 56°59' E 018°45'1219.2
2014-Aug-10 11:32N 56°50' E 018°32'6311.9
2014-Aug-10 06:17N 56°11' E 017°04'  

Dump ship's entire track history